Terminal Aerodrome Forecast
Issued by NWS Milwaukee/Sullivan, WI

Home | Current Version | Previous Version | Text Only | Print | Product List | Glossary On
Versions: 1 2 3 4 5 6 7 8 9 10 11 12 13 14 15 16 17 18 19 20 21 22 23 24 25 26
000
FTUS43 KMKX 301519 AAA
TAFMSN
TAF AMD
KMSN 301519Z 3015/3112 23005KT P6SM BKN110
     FM302100 29006KT P6SM BKN090
     FM310300 33006KT P6SM OVC025
     FM310500 33010KT P6SM BKN025
     FM310800 33014G26KT P6SM SCT025=

USA.gov is the U.S. government's official web portal to all federal, state and local government web resources and services.